Time;durP1;ratioP1;P1;durP2;ratioP2;P2;SDS_P1;SDS_P2;PMS_P1;PMS_P2;Temp;Humidity;BMP_temperature;BMP_pressure;BME280_temperature;BME280_humidity;BME280_pressure;Samples;Min_cycle;Max_cycle;Signal;HPM_P1;HPM_P2
2021/01/11 00:02:22;;;;;;;34.10;17.87;;;;;;;;;;5063243;28;20017;-63
2021/01/11 00:04:47;;;;;;;35.17;17.67;;;;;;;;;;5072975;28;20013;-63
2021/01/11 00:07:13;;;;;;;29.73;16.13;;;;;;;;;;5058784;28;20033;-63
2021/01/11 00:09:38;;;;;;;31.67;15.93;;;;;;;;;;5052189;28;20118;-63
2021/01/11 00:12:04;;;;;;;29.87;16.00;;;;;;;;;;5054203;28;20024;-63
2021/01/11 00:14:29;;;;;;;30.40;15.47;;;;;;;;;;5080453;28;20016;-63
2021/01/11 00:16:54;;;;;;;26.47;16.03;;;;;;;;;;5073817;28;20471;-63
2021/01/11 00:19:19;;;;;;;28.63;14.80;;;;;;;;;;5070183;28;20031;-63
2021/01/11 00:21:45;;;;;;;27.43;14.30;;;;;;;;;;5072643;28;20017;-63
2021/01/11 00:24:11;;;;;;;25.63;13.90;;;;;;;;;;5072694;28;20115;-63
2021/01/11 00:26:36;;;;;;;27.80;15.50;;;;;;;;;;5071157;28;20103;-63
2021/01/11 00:29:01;;;;;;;24.90;13.90;;;;;;;;;;5069510;28;20387;-63
2021/01/11 00:31:26;;;;;;;29.50;14.60;;;;;;;;;;5061189;28;20472;-63
2021/01/11 00:33:52;;;;;;;28.03;15.40;;;;;;;;;;5073480;28;20031;-63
2021/01/11 00:36:18;;;;;;;30.27;17.33;;;;;;;;;;5073409;28;20027;-63
2021/01/11 00:38:43;;;;;;;26.97;14.67;;;;;;;;;;5070038;28;20469;-63
2021/01/11 00:41:08;;;;;;;29.83;15.43;;;;;;;;;;5083187;28;20050;-63
2021/01/11 00:43:34;;;;;;;26.87;13.13;;;;;;;;;;5093422;28;20020;-63
2021/01/11 00:45:59;;;;;;;26.63;13.97;;;;;;;;;;5091839;28;20051;-63
2021/01/11 00:48:24;;;;;;;27.50;15.10;;;;;;;;;;5071612;28;20031;-63
2021/01/11 00:50:49;;;;;;;28.70;13.67;;;;;;;;;;5082687;28;20012;-63
2021/01/11 00:53:14;;;;;;;24.27;13.30;;;;;;;;;;5076623;28;20024;-63
2021/01/11 00:55:40;;;;;;;24.33;13.23;;;;;;;;;;5072341;28;20024;-63
2021/01/11 00:58:05;;;;;;;23.57;12.57;;;;;;;;;;5088498;28;20047;-63
2021/01/11 01:00:30;;;;;;;25.13;12.93;;;;;;;;;;5088236;28;20378;-63
2021/01/11 01:02:56;;;;;;;24.77;13.00;;;;;;;;;;5077418;28;20016;-63
2021/01/11 01:05:21;;;;;;;23.43;12.60;;;;;;;;;;5093120;28;20016;-63
2021/01/11 01:07:46;;;;;;;21.47;12.17;;;;;;;;;;5078571;28;20475;-63
2021/01/11 01:10:12;;;;;;;26.20;14.33;;;;;;;;;;5069713;28;20039;-64
2021/01/11 01:12:37;;;;;;;26.17;13.27;;;;;;;;;;5075037;28;20374;-64
2021/01/11 01:15:04;;;;;;;24.97;12.60;;;;;;;;;;5086538;28;20033;-64
2021/01/11 01:17:29;;;;;;;26.47;13.47;;;;;;;;;;5080705;28;20020;-64
2021/01/11 01:19:54;;;;;;;29.57;14.33;;;;;;;;;;5089647;28;20043;-64
2021/01/11 01:22:19;;;;;;;24.70;13.43;;;;;;;;;;5092496;28;20039;-63
2021/01/11 01:24:44;;;;;;;28.53;14.30;;;;;;;;;;5073634;28;20044;-63
2021/01/11 01:27:10;;;;;;;27.03;14.97;;;;;;;;;;5069773;28;20379;-63
2021/01/11 01:29:35;;;;;;;25.10;13.37;;;;;;;;;;5069450;28;20516;-64
2021/01/11 01:32:00;;;;;;;23.30;12.93;;;;;;;;;;5072401;28;20025;-63
2021/01/11 01:34:25;;;;;;;25.07;13.33;;;;;;;;;;5072428;28;20376;-64
2021/01/11 01:36:50;;;;;;;29.07;14.07;;;;;;;;;;5065346;28;20021;-62
2021/01/11 01:39:16;;;;;;;27.33;14.27;;;;;;;;;;5065579;28;20009;-63
2021/01/11 01:41:41;;;;;;;26.17;13.30;;;;;;;;;;5072550;28;20019;-62
2021/01/11 01:44:06;;;;;;;25.60;12.33;;;;;;;;;;5087973;28;20042;-63
2021/01/11 01:46:32;;;;;;;26.27;13.43;;;;;;;;;;5071090;28;20058;-63
2021/01/11 01:48:58;;;;;;;24.67;11.93;;;;;;;;;;5069070;28;20028;-63
2021/01/11 01:51:23;;;;;;;21.27;11.10;;;;;;;;;;5086913;28;20028;-63
2021/01/11 01:53:49;;;;;;;24.57;12.53;;;;;;;;;;5070777;28;20035;-63
2021/01/11 01:56:15;;;;;;;22.37;11.23;;;;;;;;;;5082515;28;20023;-63
2021/01/11 01:58:40;;;;;;;20.67;10.80;;;;;;;;;;5091133;28;20012;-63
2021/01/11 02:01:05;;;;;;;22.70;11.47;;;;;;;;;;5095380;28;20123;-63
2021/01/11 02:03:31;;;;;;;22.83;11.27;;;;;;;;;;5096512;28;20431;-63
2021/01/11 02:05:56;;;;;;;19.30;10.90;;;;;;;;;;5086268;28;20034;-63
2021/01/11 02:08:36;;;;;;;21.47;11.03;;;;;;;;;;5055109;28;20025;-63
2021/01/11 02:11:16;;;;;;;21.50;10.90;;;;;;;;;;5065211;28;20092;-64
2021/01/11 02:13:47;;;;;;;21.33;10.37;;;;;;;;;;5070986;28;20471;-64
2021/01/11 02:16:20;;;;;;;19.30;9.67;;;;;;;;;;5076799;28;20031;-63
2021/01/11 02:18:51;;;;;;;21.73;10.63;;;;;;;;;;5092683;28;20044;-63
2021/01/11 02:21:35;;;;;;;21.40;11.67;;;;;;;;;;5082473;28;20050;-63
2021/01/11 02:24:06;;;;;;;24.60;12.80;;;;;;;;;;5074146;28;20119;-62
2021/01/11 02:26:51;;;;;;;24.47;12.43;;;;;;;;;;5077714;28;20020;-63
2021/01/11 02:29:27;;;;;;;23.63;12.53;;;;;;;;;;5072560;28;20112;-62
2021/01/11 02:31:53;;;;;;;19.40;10.93;;;;;;;;;;5075872;28;20025;-62
2021/01/11 02:34:19;;;;;;;16.83;9.13;;;;;;;;;;5075661;28;20044;-63
2021/01/11 02:36:44;;;;;;;20.00;10.63;;;;;;;;;;5076091;28;20086;-62
2021/01/11 02:39:09;;;;;;;18.27;10.40;;;;;;;;;;5085118;28;20463;-63
2021/01/11 02:41:35;;;;;;;19.70;11.30;;;;;;;;;;5085515;28;20020;-62
2021/01/11 02:44:00;;;;;;;17.70;9.13;;;;;;;;;;5095858;28;20019;-62
2021/01/11 02:46:25;;;;;;;18.97;9.57;;;;;;;;;;5095170;28;20027;-62
2021/01/11 02:49:02;;;;;;;19.10;9.40;;;;;;;;;;5070215;28;20351;-62
2021/01/11 02:51:36;;;;;;;20.93;10.23;;;;;;;;;;5065158;28;20035;-62
2021/01/11 02:54:20;;;;;;;20.63;11.13;;;;;;;;;;5073869;28;20021;-62
2021/01/11 02:56:54;;;;;;;18.73;9.90;;;;;;;;;;5074317;28;20490;-62
2021/01/11 02:59:20;;;;;;;13.07;6.93;;;;;;;;;;5075345;28;20043;-62
2021/01/11 03:01:48;;;;;;;18.90;9.50;;;;;;;;;;5073641;28;20024;-63
2021/01/11 03:04:18;;;;;;;18.63;9.10;;;;;;;;;;5074177;28;20021;-62
2021/01/11 03:06:52;;;;;;;16.60;8.20;;;;;;;;;;5076753;28;20413;-62
2021/01/11 03:09:17;;;;;;;12.97;7.57;;;;;;;;;;5070890;28;20524;-63
2021/01/11 03:11:42;;;;;;;12.90;7.77;;;;;;;;;;5075080;28;20028;-63
2021/01/11 03:14:07;;;;;;;14.37;7.67;;;;;;;;;;5073741;28;20024;-63
2021/01/11 03:16:33;;;;;;;14.13;7.90;;;;;;;;;;5054811;28;20033;-64
2021/01/11 03:18:58;;;;;;;15.10;7.27;;;;;;;;;;5072006;28;20024;-64
2021/01/11 03:21:23;;;;;;;14.07;6.63;;;;;;;;;;5074505;28;20008;-63
2021/01/11 03:23:48;;;;;;;12.47;6.83;;;;;;;;;;5074147;28;20506;-63
2021/01/11 03:26:20;;;;;;;13.27;7.43;;;;;;;;;;5074696;28;20028;-63
2021/01/11 03:28:46;;;;;;;13.03;7.53;;;;;;;;;;5090079;28;20100;-63
2021/01/11 03:31:11;;;;;;;14.13;8.03;;;;;;;;;;5094951;28;20099;-63
2021/01/11 03:33:36;;;;;;;11.30;7.03;;;;;;;;;;5073626;28;20029;-63
2021/01/11 03:36:01;;;;;;;15.37;7.63;;;;;;;;;;5073421;28;20020;-63
2021/01/11 03:38:26;;;;;;;13.50;7.20;;;;;;;;;;5087589;28;20020;-64
2021/01/11 03:40:58;;;;;;;13.57;7.40;;;;;;;;;;5092469;28;20378;-64
2021/01/11 03:43:24;;;;;;;12.27;6.90;;;;;;;;;;5088569;28;20493;-63
2021/01/11 03:45:50;;;;;;;14.73;7.77;;;;;;;;;;5073217;28;20024;-63
2021/01/11 03:48:15;;;;;;;14.57;6.83;;;;;;;;;;5087087;28;20024;-63
2021/01/11 03:50:40;;;;;;;12.40;6.97;;;;;;;;;;5075516;28;20020;-63
2021/01/11 03:53:06;;;;;;;12.80;7.20;;;;;;;;;;5070648;28;20032;-63
2021/01/11 03:55:31;;;;;;;13.80;7.27;;;;;;;;;;5072498;28;20475;-63
2021/01/11 03:57:56;;;;;;;14.00;7.40;;;;;;;;;;5086093;28;20039;-63
2021/01/11 04:00:21;;;;;;;15.07;7.93;;;;;;;;;;5074638;28;20379;-63
2021/01/11 04:02:47;;;;;;;13.93;6.67;;;;;;;;;;5092971;28;20486;-62
2021/01/11 04:05:12;;;;;;;15.93;8.03;;;;;;;;;;5072982;28;20021;-63
2021/01/11 04:07:37;;;;;;;14.33;7.43;;;;;;;;;;5066728;28;20031;-62
2021/01/11 04:10:03;;;;;;;11.93;6.90;;;;;;;;;;5070759;28;20025;-62
2021/01/11 04:12:28;;;;;;;12.13;6.93;;;;;;;;;;5075669;28;20024;-62
2021/01/11 04:14:53;;;;;;;12.67;6.40;;;;;;;;;;5076297;28;20108;-62
2021/01/11 04:17:19;;;;;;;11.90;7.10;;;;;;;;;;5083782;28;20103;-62
2021/01/11 04:19:44;;;;;;;11.80;6.87;;;;;;;;;;5070262;28;20016;-63
2021/01/11 04:22:09;;;;;;;12.93;6.37;;;;;;;;;;5090951;28;20012;-62
2021/01/11 04:24:34;;;;;;;11.90;6.83;;;;;;;;;;5092810;28;20044;-62
2021/01/11 04:26:59;;;;;;;13.27;6.73;;;;;;;;;;5076474;28;20032;-63
2021/01/11 04:29:25;;;;;;;11.93;6.20;;;;;;;;;;5075032;28;20024;-62
2021/01/11 04:31:50;;;;;;;12.33;6.20;;;;;;;;;;5073263;28;20028;-63
2021/01/11 04:34:15;;;;;;;11.60;6.27;;;;;;;;;;5073322;28;20028;-63
2021/01/11 04:36:41;;;;;;;13.10;6.83;;;;;;;;;;5072065;28;20024;-63
2021/01/11 04:39:06;;;;;;;13.43;7.57;;;;;;;;;;5075816;28;20021;-62
2021/01/11 04:41:34;;;;;;;17.80;7.60;;;;;;;;;;5073141;28;20039;-62
2021/01/11 04:44:00;;;;;;;14.77;7.20;;;;;;;;;;5071688;28;20116;-62
2021/01/11 04:46:26;;;;;;;14.30;6.87;;;;;;;;;;5084892;28;20145;-62
2021/01/11 04:48:51;;;;;;;14.23;7.10;;;;;;;;;;5075704;28;20111;-63
2021/01/11 04:51:17;;;;;;;13.03;6.57;;;;;;;;;;5070619;28;20037;-62
2021/01/11 04:53:44;;;;;;;13.97;7.30;;;;;;;;;;5071534;28;20036;-62
2021/01/11 04:56:11;;;;;;;11.13;6.47;;;;;;;;;;5073177;28;20024;-62
2021/01/11 04:58:51;;;;;;;14.10;7.37;;;;;;;;;;5069783;28;20073;-63
2021/01/11 05:01:20;;;;;;;17.60;8.20;;;;;;;;;;5072804;28;20017;-62
2021/01/11 05:03:45;;;;;;;12.53;6.37;;;;;;;;;;5072910;28;20032;-62
2021/01/11 05:06:11;;;;;;;13.33;6.80;;;;;;;;;;5071495;28;20028;-62
2021/01/11 05:08:36;;;;;;;13.53;6.70;;;;;;;;;;5053543;28;20029;-62
2021/01/11 05:11:01;;;;;;;13.73;6.27;;;;;;;;;;5069003;28;20016;-62
2021/01/11 05:13:27;;;;;;;11.33;6.33;;;;;;;;;;5064972;28;20035;-62
2021/01/11 05:15:52;;;;;;;10.47;6.10;;;;;;;;;;5080946;28;20133;-63
2021/01/11 05:18:18;;;;;;;12.97;6.67;;;;;;;;;;5055566;28;20052;-63
2021/01/11 05:20:43;;;;;;;10.30;6.00;;;;;;;;;;5049145;28;20044;-63
2021/01/11 05:23:13;;;;;;;9.63;5.60;;;;;;;;;;5054882;28;20049;-62
2021/01/11 05:25:39;;;;;;;11.37;5.63;;;;;;;;;;5084178;28;20111;-62
2021/01/11 05:28:07;;;;;;;9.77;4.90;;;;;;;;;;5071620;28;20051;-63
2021/01/11 05:30:45;;;;;;;9.07;5.43;;;;;;;;;;5068812;28;20016;-63
2021/01/11 05:33:24;;;;;;;9.97;5.30;;;;;;;;;;5072255;28;20020;-62
2021/01/11 05:36:07;;;;;;;12.73;5.93;;;;;;;;;;5072490;28;20016;-62
2021/01/11 05:38:36;;;;;;;12.60;6.67;;;;;;;;;;5069192;28;20511;-62
2021/01/11 05:41:16;;;;;;;11.63;6.47;;;;;;;;;;5070950;28;20032;-62
2021/01/11 05:43:41;;;;;;;11.67;6.73;;;;;;;;;;5072469;28;20008;-63
2021/01/11 05:46:26;;;;;;;11.53;6.63;;;;;;;;;;5076765;28;20089;-63
2021/01/11 05:49:02;;;;;;;11.47;6.10;;;;;;;;;;5069036;28;20025;-63
2021/01/11 05:51:28;;;;;;;15.00;7.47;;;;;;;;;;5090927;28;20681;-63
2021/01/11 05:53:54;;;;;;;14.07;7.73;;;;;;;;;;5091789;28;20536;-63
2021/01/11 05:56:19;;;;;;;13.70;7.77;;;;;;;;;;5074564;28;20024;-63
2021/01/11 05:59:03;;;;;;;14.23;7.70;;;;;;;;;;5068869;28;20419;-63
2021/01/11 06:01:29;;;;;;;11.87;7.33;;;;;;;;;;5071820;28;20017;-64
2021/01/11 06:03:55;;;;;;;13.97;7.63;;;;;;;;;;5072089;28;20016;-63
2021/01/11 06:06:20;;;;;;;14.07;8.03;;;;;;;;;;5072034;28;20024;-63
2021/01/11 06:08:45;;;;;;;14.77;7.73;;;;;;;;;;5052740;28;20435;-63
2021/01/11 06:11:11;;;;;;;14.80;8.00;;;;;;;;;;5068097;28;20067;-63
2021/01/11 06:13:36;;;;;;;15.73;8.27;;;;;;;;;;5071770;28;20427;-63
2021/01/11 06:16:02;;;;;;;13.97;8.00;;;;;;;;;;5077718;28;20063;-64
2021/01/11 06:18:27;;;;;;;19.47;9.40;;;;;;;;;;5066066;28;20483;-64
2021/01/11 06:20:52;;;;;;;18.60;9.07;;;;;;;;;;5069656;28;20016;-64
2021/01/11 06:23:25;;;;;;;17.70;9.73;;;;;;;;;;5076846;28;20490;-62
2021/01/11 06:25:50;;;;;;;13.87;7.50;;;;;;;;;;5088892;28;20402;-62
2021/01/11 06:28:16;;;;;;;12.63;6.57;;;;;;;;;;5081608;28;20103;-63
2021/01/11 06:30:42;;;;;;;13.03;7.77;;;;;;;;;;5054145;28;20483;-62
2021/01/11 06:33:24;;;;;;;15.37;8.33;;;;;;;;;;5082101;28;20530;-62
2021/01/11 06:35:50;;;;;;;15.87;7.80;;;;;;;;;;5081031;28;20028;-63
2021/01/11 06:38:29;;;;;;;14.77;7.40;;;;;;;;;;5084011;28;20024;-62
2021/01/11 06:41:03;;;;;;;14.87;7.77;;;;;;;;;;5089744;28;20352;-64
2021/01/11 06:43:29;;;;;;;15.32;7.75;;;;;;;;;;5093594;28;20462;-64
2021/01/11 06:45:54;;;;;;;14.37;6.67;;;;;;;;;;5089066;28;20115;-64
2021/01/11 06:48:20;;;;;;;13.17;7.40;;;;;;;;;;5074292;28;20052;-64
2021/01/11 06:50:46;;;;;;;17.00;7.47;;;;;;;;;;5073313;28;20020;-63
2021/01/11 06:53:12;;;;;;;14.23;8.00;;;;;;;;;;5082497;28;20024;-63
2021/01/11 06:55:38;;;;;;;13.97;6.83;;;;;;;;;;5089148;28;20027;-63
2021/01/11 06:58:03;;;;;;;15.33;7.97;;;;;;;;;;5073262;28;20029;-63
2021/01/11 07:00:33;;;;;;;12.87;7.27;;;;;;;;;;5071959;28;20008;-62
2021/01/11 07:02:59;;;;;;;13.03;6.77;;;;;;;;;;5075132;28;20012;-62
2021/01/11 07:05:33;;;;;;;15.03;7.07;;;;;;;;;;5073578;28;20028;-62
2021/01/11 07:08:08;;;;;;;14.23;7.93;;;;;;;;;;5069947;28;20494;-63
2021/01/11 07:10:33;;;;;;;;;;;;;;;;;;5077855;28;20096;-63
2021/01/11 07:13:16;;;;;;;14.13;7.75;;;;;;;;;;5075669;28;20268;-62
2021/01/11 07:15:42;;;;;;;11.97;6.30;;;;;;;;;;5057773;28;20025;-62
2021/01/11 07:18:07;;;;;;;12.67;7.30;;;;;;;;;;5065447;28;20491;-62
2021/01/11 07:20:40;;;;;;;12.87;7.27;;;;;;;;;;5052173;28;20035;-63
2021/01/11 07:23:05;;;;;;;12.20;7.37;;;;;;;;;;5059392;28;20092;-62
2021/01/11 07:25:31;;;;;;;15.13;6.67;;;;;;;;;;5056048;28;20083;-62
2021/01/11 07:27:57;;;;;;;15.13;7.47;;;;;;;;;;5065086;28;20044;-63
2021/01/11 07:30:23;;;;;;;13.80;8.37;;;;;;;;;;5069389;28;20378;-63
2021/01/11 07:32:48;;;;;;;13.27;7.97;;;;;;;;;;5054504;28;20036;-63
2021/01/11 07:35:13;;;;;;;16.40;8.60;;;;;;;;;;5064074;28;20476;-63
2021/01/11 07:37:39;;;;;;;13.00;7.73;;;;;;;;;;5062531;28;20033;-63
2021/01/11 07:40:06;;;;;;;16.07;8.27;;;;;;;;;;5049875;28;20020;-63
2021/01/11 07:42:31;;;;;;;13.70;8.13;;;;;;;;;;5054276;28;20013;-63
2021/01/11 07:45:03;;;;;;;12.03;7.27;;;;;;;;;;5059265;28;20031;-63
2021/01/11 07:47:28;;;;;;;13.33;7.67;;;;;;;;;;5064146;28;20059;-62
2021/01/11 07:49:54;;;;;;;13.27;7.50;;;;;;;;;;5060424;28;20436;-63
2021/01/11 07:52:22;;;;;;;13.87;8.03;;;;;;;;;;5056868;28;20562;-64
2021/01/11 07:55:01;;;;;;;13.77;7.17;;;;;;;;;;5065995;28;20472;-64
2021/01/11 07:57:27;;;;;;;11.47;7.10;;;;;;;;;;5052181;28;20017;-64
2021/01/11 08:00:06;;;;;;;11.53;7.37;;;;;;;;;;5066655;28;20016;-64
2021/01/11 08:02:31;;;;;;;11.33;7.13;;;;;;;;;;5069302;28;20483;-62
2021/01/11 08:04:57;;;;;;;12.63;8.00;;;;;;;;;;5056518;28;20024;-64
2021/01/11 08:07:29;;;;;;;12.40;7.63;;;;;;;;;;5061597;28;20024;-62
2021/01/11 08:09:56;;;;;;;12.43;7.07;;;;;;;;;;5070883;28;20016;-63
2021/01/11 08:12:21;;;;;;;10.60;6.80;;;;;;;;;;5054580;28;20082;-63
2021/01/11 08:14:47;;;;;;;12.17;6.60;;;;;;;;;;5061833;28;20112;-63
2021/01/11 08:17:14;;;;;;;12.80;7.00;;;;;;;;;;5072858;28;20078;-63
2021/01/11 08:19:42;;;;;;;11.93;7.03;;;;;;;;;;5070370;28;20079;-63
2021/01/11 08:22:09;;;;;;;11.97;6.97;;;;;;;;;;5056962;28;20021;-63
2021/01/11 08:24:35;;;;;;;12.83;8.87;;;;;;;;;;5062455;28;20483;-63
2021/01/11 08:27:05;;;;;;;12.87;8.90;;;;;;;;;;5067777;28;20021;-63
2021/01/11 08:29:36;;;;;;;11.73;8.53;;;;;;;;;;5057606;28;20020;-63
2021/01/11 08:32:02;;;;;;;12.97;7.33;;;;;;;;;;5058331;28;20051;-63
2021/01/11 08:34:28;;;;;;;13.43;7.47;;;;;;;;;;5059284;28;20021;-63
2021/01/11 08:36:53;;;;;;;12.20;7.43;;;;;;;;;;5068501;28;20030;-64
2021/01/11 08:39:19;;;;;;;11.87;7.10;;;;;;;;;;5053920;28;20067;-64
2021/01/11 08:41:49;;;;;;;12.87;6.70;;;;;;;;;;5061580;28;20310;-65
2021/01/11 08:44:23;;;;;;;10.37;6.53;;;;;;;;;;5071583;28;20062;-66
2021/01/11 08:46:56;;;;;;;11.77;6.97;;;;;;;;;;5071274;28;20048;-66
2021/01/11 08:49:21;;;;;;;10.93;7.50;;;;;;;;;;5059323;28;20468;-63
2021/01/11 08:51:47;;;;;;;11.23;6.73;;;;;;;;;;5052823;28;20032;-63
2021/01/11 08:54:25;;;;;;;10.00;6.10;;;;;;;;;;5061190;28;20086;-64
2021/01/11 08:56:51;;;;;;;10.67;7.07;;;;;;;;;;5054011;28;20017;-64
2021/01/11 08:59:17;;;;;;;11.17;7.23;;;;;;;;;;5068024;28;20019;-64
2021/01/11 09:01:44;;;;;;;10.97;7.00;;;;;;;;;;5060986;28;20078;-63
2021/01/11 09:04:10;;;;;;;10.07;6.40;;;;;;;;;;5051738;28;20021;-64
2021/01/11 09:06:42;;;;;;;11.83;7.17;;;;;;;;;;5065365;28;20130;-63
2021/01/11 09:09:12;;;;;;;10.47;6.87;;;;;;;;;;5049105;28;20506;-63
2021/01/11 09:11:37;;;;;;;11.63;7.50;;;;;;;;;;5064061;28;20051;-64
2021/01/11 09:14:06;;;;;;;13.97;9.33;;;;;;;;;;5053258;28;20036;-64
2021/01/11 09:16:32;;;;;;;12.67;8.03;;;;;;;;;;5056027;28;20032;-63
2021/01/11 09:19:08;;;;;;;12.33;8.07;;;;;;;;;;5067700;28;20031;-64
2021/01/11 09:21:33;;;;;;;10.97;7.27;;;;;;;;;;5056849;28;20021;-63
2021/01/11 09:23:58;;;;;;;10.13;6.70;;;;;;;;;;5068074;28;20123;-63
2021/01/11 09:26:23;;;;;;;9.77;6.50;;;;;;;;;;5070937;28;20024;-64
2021/01/11 09:28:48;;;;;;;9.83;6.67;;;;;;;;;;5062616;28;20030;-64
2021/01/11 09:31:14;;;;;;;10.20;6.47;;;;;;;;;;5064215;28;20131;-64
2021/01/11 09:33:39;;;;;;;10.70;6.60;;;;;;;;;;5059533;28;20016;-64
2021/01/11 09:36:04;;;;;;;9.10;5.70;;;;;;;;;;5062361;28;20032;-64
2021/01/11 09:38:29;;;;;;;10.00;6.47;;;;;;;;;;5067931;28;20073;-63
2021/01/11 09:40:55;;;;;;;10.17;6.90;;;;;;;;;;5067667;28;20024;-63
2021/01/11 09:43:20;;;;;;;9.27;6.63;;;;;;;;;;5064292;28;20479;-64
2021/01/11 09:45:45;;;;;;;7.60;4.50;;;;;;;;;;5053019;28;20096;-63
2021/01/11 09:48:10;;;;;;;6.07;3.83;;;;;;;;;;5062272;28;20017;-64
2021/01/11 09:50:39;;;;;;;6.47;2.93;;;;;;;;;;5048962;28;20029;-63
2021/01/11 09:53:05;;;;;;;8.03;6.10;;;;;;;;;;5067654;28;20020;-63
2021/01/11 09:55:30;;;;;;;5.20;3.73;;;;;;;;;;5070361;28;20027;-65
2021/01/11 09:57:55;;;;;;;7.73;5.93;;;;;;;;;;5066864;28;20170;-63
2021/01/11 10:00:21;;;;;;;9.67;5.80;;;;;;;;;;5059707;28;20025;-63
2021/01/11 10:02:49;;;;;;;8.33;5.83;;;;;;;;;;5051098;28;20029;-63
2021/01/11 10:05:16;;;;;;;5.73;3.73;;;;;;;;;;5052282;28;20040;-63
2021/01/11 10:07:42;;;;;;;7.90;6.80;;;;;;;;;;5071119;28;20020;-63
2021/01/11 10:10:07;;;;;;;7.63;5.10;;;;;;;;;;5060692;28;20013;-64
2021/01/11 10:12:32;;;;;;;8.53;5.07;;;;;;;;;;5064627;28;20079;-64
2021/01/11 10:14:58;;;;;;;5.77;2.87;;;;;;;;;;5053579;28;20017;-64
2021/01/11 10:17:23;;;;;;;6.87;4.27;;;;;;;;;;5056976;28;20091;-60
2021/01/11 10:19:48;;;;;;;7.33;5.00;;;;;;;;;;5065040;28;20024;-60
2021/01/11 10:22:13;;;;;;;6.07;4.70;;;;;;;;;;5055600;28;20024;-60
2021/01/11 10:24:38;;;;;;;2.33;1.80;;;;;;;;;;5058952;28;20043;-58
2021/01/11 10:27:04;;;;;;;4.30;3.00;;;;;;;;;;5073913;28;20081;-61
2021/01/11 10:29:29;;;;;;;4.90;3.27;;;;;;;;;;5071635;28;20085;-60
2021/01/11 10:31:54;;;;;;;4.80;2.90;;;;;;;;;;5058821;28;20025;-60
2021/01/11 10:34:20;;;;;;;4.03;2.87;;;;;;;;;;5055355;28;20024;-62
2021/01/11 10:36:46;;;;;;;4.57;2.80;;;;;;;;;;5064360;28;20025;-62
2021/01/11 10:39:12;;;;;;;4.77;2.40;;;;;;;;;;5057392;28;20553;-61
2021/01/11 10:41:38;;;;;;;3.83;2.07;;;;;;;;;;5060356;28;20143;-61
2021/01/11 10:44:07;;;;;;;2.33;1.13;;;;;;;;;;5064600;28;20128;-61
2021/01/11 10:46:33;;;;;;;4.50;2.47;;;;;;;;;;5060867;28;20051;-61
2021/01/11 10:48:58;;;;;;;5.87;5.17;;;;;;;;;;5062107;28;20471;-62
2021/01/11 10:51:23;;;;;;;4.90;3.00;;;;;;;;;;5055671;28;20029;-61
2021/01/11 10:53:49;;;;;;;3.33;2.27;;;;;;;;;;5063017;28;20108;-62
2021/01/11 10:56:14;;;;;;;3.83;3.13;;;;;;;;;;5081936;28;20434;-63
2021/01/11 10:58:40;;;;;;;4.00;3.20;;;;;;;;;;5050747;28;20017;-62
2021/01/11 11:01:06;;;;;;;5.53;3.30;;;;;;;;;;5066725;28;20031;-63
2021/01/11 11:03:32;;;;;;;5.07;4.03;;;;;;;;;;5069129;28;20502;-62
2021/01/11 11:05:57;;;;;;;6.07;3.83;;;;;;;;;;5073675;28;20108;-62
2021/01/11 11:08:23;;;;;;;5.50;3.83;;;;;;;;;;5072932;28;20056;-61
2021/01/11 11:10:48;;;;;;;4.33;3.50;;;;;;;;;;5061271;28;20016;-62
2021/01/11 11:13:13;;;;;;;5.77;3.93;;;;;;;;;;5062749;28;20499;-61
2021/01/11 11:15:42;;;;;;;4.90;4.37;;;;;;;;;;5057812;28;20032;-61
2021/01/11 11:18:07;;;;;;;5.53;4.27;;;;;;;;;;5071509;28;20024;-61
2021/01/11 11:20:32;;;;;;;4.07;3.20;;;;;;;;;;5071488;28;20383;-61
2021/01/11 11:22:57;;;;;;;3.17;1.57;;;;;;;;;;5072821;28;20016;-63
2021/01/11 11:25:23;;;;;;;4.05;2.42;;;;;;;;;;5064663;28;20053;-62
2021/01/11 11:27:48;;;;;;;4.55;3.47;;;;;;;;;;5064311;28;20052;-62
2021/01/11 11:30:15;;;;;;;4.80;3.40;;;;;;;;;;5068910;28;20032;-62
2021/01/11 11:32:44;;;;;;;3.47;2.67;;;;;;;;;;5054611;28;20029;-63
2021/01/11 11:35:09;;;;;;;4.80;3.80;;;;;;;;;;5054613;28;20029;-62
2021/01/11 11:37:34;;;;;;;4.97;3.90;;;;;;;;;;5058965;28;20021;-62
2021/01/11 11:40:00;;;;;;;3.70;3.10;;;;;;;;;;5058891;28;20043;-62
2021/01/11 11:42:25;;;;;;;5.90;3.10;;;;;;;;;;5067482;28;20475;-62
2021/01/11 11:44:50;;;;;;;4.32;3.22;;;;;;;;;;5061847;28;20048;-62
2021/01/11 11:47:16;;;;;;;2.65;2.45;;;;;;;;;;5054015;28;20165;-62
2021/01/11 11:49:41;;;;;;;3.67;3.28;;;;;;;;;;5051073;28;20021;-62
2021/01/11 11:52:06;;;;;;;3.80;2.97;;;;;;;;;;5073130;28;20057;-63
2021/01/11 11:54:31;;;;;;;3.90;2.90;;;;;;;;;;5065079;28;20021;-63
2021/01/11 11:56:56;;;;;;;3.90;2.93;;;;;;;;;;5053891;28;20029;-63
2021/01/11 11:59:22;;;;;;;4.57;3.77;;;;;;;;;;5050646;28;20028;-63
2021/01/11 12:01:47;;;;;;;4.03;3.50;;;;;;;;;;5064134;28;20031;-63
2021/01/11 12:04:12;;;;;;;4.00;2.70;;;;;;;;;;5068892;28;20468;-63
2021/01/11 12:06:42;;;;;;;3.50;2.33;;;;;;;;;;5054186;28;20411;-63
2021/01/11 12:09:08;;;;;;;4.23;2.53;;;;;;;;;;5067901;28;20027;-64
2021/01/11 12:11:40;;;;;;;4.83;4.13;;;;;;;;;;5053462;28;20029;-62
2021/01/11 12:14:05;;;;;;;4.00;3.57;;;;;;;;;;5069077;28;20032;-62
2021/01/11 12:16:31;;;;;;;4.30;3.67;;;;;;;;;;5056643;28;20054;-62
2021/01/11 12:18:56;;;;;;;3.40;2.67;;;;;;;;;;5050623;28;20017;-62
2021/01/11 12:21:31;;;;;;;3.00;2.60;;;;;;;;;;5054590;28;20028;-63
2021/01/11 12:23:57;;;;;;;3.63;2.28;;;;;;;;;;5061008;28;20037;-62
2021/01/11 12:26:22;;;;;;;4.67;3.00;;;;;;;;;;5069860;28;20082;-61
2021/01/11 12:28:47;;;;;;;2.83;2.53;;;;;;;;;;5050087;28;20504;-62
2021/01/11 12:31:12;;;;;;;3.20;2.30;;;;;;;;;;5065456;28;20033;-62
2021/01/11 12:33:37;;;;;;;5.37;3.23;;;;;;;;;;5060456;28;20845;-63
2021/01/11 12:36:03;;;;;;;3.40;3.10;;;;;;;;;;5059828;28;20071;-62
2021/01/11 12:38:28;;;;;;;3.00;2.10;;;;;;;;;;5058128;28;20105;-62
2021/01/11 12:40:53;;;;;;;4.13;3.10;;;;;;;;;;5059785;28;20028;-63
2021/01/11 12:43:18;;;;;;;3.63;2.73;;;;;;;;;;5055688;28;20021;-63
2021/01/11 12:45:44;;;;;;;3.43;2.80;;;;;;;;;;5059577;28;20059;-62
2021/01/11 12:48:10;;;;;;;4.67;3.33;;;;;;;;;;5068022;28;20169;-61
2021/01/11 12:50:35;;;;;;;4.00;2.90;;;;;;;;;;5069067;28;20044;-62
2021/01/11 12:53:00;;;;;;;4.80;2.80;;;;;;;;;;5064083;28;20055;-62
2021/01/11 12:55:25;;;;;;;3.97;3.00;;;;;;;;;;5052076;28;20215;-62
2021/01/11 12:57:51;;;;;;;5.20;3.27;;;;;;;;;;5059622;28;20020;-62
2021/01/11 13:00:16;;;;;;;5.63;3.47;;;;;;;;;;5057492;28;20016;-61
2021/01/11 13:02:41;;;;;;;4.37;2.93;;;;;;;;;;5058687;28;20472;-61
2021/01/11 13:05:07;;;;;;;3.93;2.73;;;;;;;;;;5058516;28;20375;-62
2021/01/11 13:07:34;;;;;;;3.83;2.53;;;;;;;;;;5058875;28;20187;-62
2021/01/11 13:09:59;;;;;;;3.53;2.70;;;;;;;;;;5057689;28;20090;-61
2021/01/11 13:12:25;;;;;;;2.83;2.47;;;;;;;;;;5058285;28;20039;-61
2021/01/11 13:14:51;;;;;;;2.67;1.43;;;;;;;;;;5055912;28;20100;-61
2021/01/11 13:17:16;;;;;;;4.07;2.50;;;;;;;;;;5059564;28;20115;-62
2021/01/11 13:19:41;;;;;;;2.87;2.30;;;;;;;;;;5054591;28;20052;-62
2021/01/11 13:22:07;;;;;;;3.93;3.23;;;;;;;;;;5060518;28;20097;-61
2021/01/11 13:24:33;;;;;;;3.97;2.50;;;;;;;;;;5056088;28;20095;-62
2021/01/11 13:26:58;;;;;;;3.53;2.17;;;;;;;;;;5057327;28;20460;-64
2021/01/11 13:29:24;;;;;;;3.13;1.70;;;;;;;;;;5050074;28;20023;-61
2021/01/11 13:31:49;;;;;;;3.07;2.40;;;;;;;;;;5072693;28;20044;-61
2021/01/11 13:34:15;;;;;;;3.80;2.70;;;;;;;;;;5053549;28;20060;-60
2021/01/11 13:36:41;;;;;;;2.93;2.20;;;;;;;;;;5059356;28;20570;-61
2021/01/11 13:39:06;;;;;;;3.23;2.93;;;;;;;;;;5052865;28;20012;-61
2021/01/11 13:41:31;;;;;;;3.63;2.30;;;;;;;;;;5058294;28;20825;-61
2021/01/11 13:43:56;;;;;;;4.80;2.70;;;;;;;;;;5056213;28;20045;-62
2021/01/11 13:46:26;;;;;;;3.87;3.17;;;;;;;;;;5060584;28;20134;-61
2021/01/11 13:48:51;;;;;;;5.00;3.03;;;;;;;;;;5052999;28;20203;-62
2021/01/11 13:51:16;;;;;;;3.53;2.27;;;;;;;;;;5054440;28;20021;-62
2021/01/11 13:53:41;;;;;;;4.23;2.97;;;;;;;;;;5059491;28;20029;-63
2021/01/11 13:56:08;;;;;;;4.50;3.40;;;;;;;;;;5060356;28;20458;-61
2021/01/11 13:58:33;;;;;;;4.07;3.23;;;;;;;;;;5063807;28;20060;-61
2021/01/11 14:00:59;;;;;;;3.80;3.00;;;;;;;;;;5066091;28;20045;-62
2021/01/11 14:03:27;;;;;;;4.37;2.80;;;;;;;;;;5051854;28;20032;-62
2021/01/11 14:05:52;;;;;;;4.17;2.87;;;;;;;;;;5051644;28;20031;-61
2021/01/11 14:08:18;;;;;;;3.90;3.43;;;;;;;;;;5050699;28;20025;-61
2021/01/11 14:10:43;;;;;;;5.03;3.10;;;;;;;;;;5052845;28;20031;-62
2021/01/11 14:13:08;;;;;;;3.37;2.80;;;;;;;;;;5057319;28;20417;-62
2021/01/11 14:15:33;;;;;;;3.30;2.63;;;;;;;;;;5064071;28;20016;-61
2021/01/11 14:18:02;;;;;;;4.20;2.60;;;;;;;;;;5066656;28;20021;-61
2021/01/11 14:20:27;;;;;;;3.90;1.60;;;;;;;;;;5067364;28;20059;-62
2021/01/11 14:22:52;;;;;;;4.43;2.63;;;;;;;;;;5052438;28;20068;-62
2021/01/11 14:25:17;;;;;;;4.10;3.70;;;;;;;;;;5052595;28;20079;-62
2021/01/11 14:27:43;;;;;;;3.20;1.87;;;;;;;;;;5051629;28;20459;-62
2021/01/11 14:30:08;;;;;;;4.57;3.03;;;;;;;;;;5052892;28;20040;-61
2021/01/11 14:32:33;;;;;;;5.43;3.27;;;;;;;;;;5071678;28;20429;-62